Terminal Aerodrome Forecast
Issued by NWS

Home | Current Version | Previous Version | Graphics & Text | Print | Product List | Glossary On
Versions: 1 2 3 4 5 6 7 8 9 10 11 12 13 14
000
FTUS43 KMPX 301128
TAFRWF
TAF
KRWF 301128Z 3012/0112 VRB03KT 5SM BR SCT002
      TEMPO 3012/3014 2SM BR BKN002
     FM301400 08006KT P6SM SKC
     FM010000 09004KT P6SM SCT030 BKN050
     FM011000 11003KT 6SM BR OVC025=

USA.gov is the U.S. government's official web portal to all federal, state and local government web resources and services.